Time;durP1;ratioP1;P1;durP2;ratioP2;P2;SDS_P1;SDS_P2;PMS_P1;PMS_P2;Temp;Humidity;BMP_temperature;BMP_pressure;BME280_temperature;BME280_humidity;BME280_pressure;Samples;Min_cycle;Max_cycle;Signal;HPM_P1;HPM_P2
2022/03/16 09:13:36;;;;;;;16.88;9.55;;;7.50;99.90;;;;;;5070748;28;20550;-74
2022/03/16 09:16:02;;;;;;;14.18;10.48;;;7.60;99.90;;;;;;5070683;28;20176;-75
2022/03/16 09:18:28;;;;;;;16.77;10.00;;;7.70;99.90;;;;;;5070650;28;20164;-75
2022/03/16 09:20:54;;;;;;;19.85;10.27;;;7.80;99.90;;;;;;5069340;28;20701;-75
2022/03/16 09:23:19;;;;;;;13.10;9.95;;;7.80;99.90;;;;;;5070537;28;20263;-75
2022/03/16 09:25:45;;;;;;;17.58;11.10;;;7.90;99.90;;;;;;5070508;28;20160;-72
2022/03/16 09:28:12;;;;;;;22.20;10.40;;;7.90;99.90;;;;;;5070388;28;20175;-72
2022/03/16 09:30:38;;;;;;;16.60;11.25;;;8.00;99.90;;;;;;5070427;28;20180;-72
2022/03/16 09:33:04;;;;;;;11.85;9.98;;;8.10;99.90;;;;;;5070230;28;20598;-72
2022/03/16 09:35:31;;;;;;;15.32;10.38;;;8.10;99.90;;;;;;5070283;28;20169;-72
2022/03/16 09:37:58;;;;;;;13.82;9.63;;;8.20;99.90;;;;;;5069107;28;20169;-72
2022/03/16 09:40:24;;;;;;;16.25;10.40;;;8.20;99.90;;;;;;5070214;28;20252;-72
2022/03/16 09:42:52;;;;;;;14.80;10.32;;;8.30;99.90;;;;;;5070162;28;20168;-72
2022/03/16 09:45:20;;;;;;;13.32;9.50;;;8.30;99.90;;;;;;5068780;28;20580;-72
2022/03/16 09:47:50;;;;;;;15.82;10.25;;;8.30;99.90;;;;;;5070018;28;20261;-72
2022/03/16 09:50:20;;;;;;;13.15;9.95;;;8.40;99.90;;;;;;5070004;28;20654;-72
2022/03/16 09:52:47;;;;;;;13.90;9.93;;;8.40;99.90;;;;;;5069924;28;20231;-72
2022/03/16 09:55:17;;;;;;;12.57;9.52;;;8.50;99.90;;;;;;5068614;28;20165;-72
2022/03/16 09:57:43;;;;;;;16.13;10.52;;;8.60;99.90;;;;;;5069854;28;20176;-72
2022/03/16 10:00:12;;;;;;;14.10;9.85;;;8.70;99.90;;;;;;5069748;28;20169;-72
2022/03/16 10:02:39;;;;;;;14.10;9.10;;;8.70;99.90;;;;;;5069206;28;20184;-73
2022/03/16 10:05:09;;;;;;;11.15;9.32;;;8.80;99.90;;;;;;5069700;28;20179;-73
2022/03/16 10:07:36;;;;;;;11.45;9.05;;;8.80;99.90;;;;;;5069572;28;20180;-72
2022/03/16 10:15:33;;;;;;;12.50;8.90;;;8.90;99.90;;;;;;5069472;28;20542;-73
2022/03/16 10:18:02;;;;;;;9.15;8.05;;;9.00;99.90;;;;;;5069407;28;20168;-72
2022/03/16 10:20:39;;;;;;;12.48;9.18;;;9.00;99.90;;;;;;5069296;28;20211;-72
2022/03/16 10:23:10;;;;;;;8.60;7.57;;;9.10;99.90;;;;;;5066412;28;20176;-72
2022/03/16 10:25:45;;;;;;;10.48;8.13;;;9.10;99.90;;;;;;5056101;28;20587;-72
2022/03/16 10:28:30;;;;;;;11.30;7.40;;;9.20;99.90;;;;;;5056073;28;20222;-72
2022/03/16 10:31:05;;;;;;;8.13;7.43;;;9.30;99.90;;;;;;5056049;28;20169;-72
2022/03/16 10:33:36;;;;;;;12.57;7.50;;;9.30;99.90;;;;;;5055892;28;20585;-72
2022/03/16 10:36:07;;;;;;;9.60;7.93;;;9.30;99.90;;;;;;5055848;28;20169;-72
2022/03/16 10:38:43;;;;;;;7.97;7.28;;;9.40;99.90;;;;;;5055842;28;20619;-72
2022/03/16 10:46:55;;;;;;;9.82;7.93;;;9.60;99.90;;;;;;5055999;28;20688;-72
2022/03/16 10:49:23;;;;;;;7.55;6.82;;;9.60;99.90;;;;;;5055705;28;20172;-73
2022/03/16 10:52:02;;;;;;;8.27;7.28;;;9.70;99.90;;;;;;5055497;28;20208;-72
2022/03/16 10:54:29;;;;;;;7.82;6.75;;;9.80;99.90;;;;;;5055484;28;20169;-72
2022/03/16 10:56:58;;;;;;;8.40;7.18;;;9.80;99.90;;;;;;5055528;28;20240;-72
2022/03/16 10:59:32;;;;;;;7.47;6.88;;;9.90;99.90;;;;;;5055400;28;20184;-72
2022/03/16 11:02:03;;;;;;;7.78;7.07;;;10.00;99.90;;;;;;5055463;28;20175;-72
2022/03/16 11:04:31;;;;;;;7.70;7.00;;;10.00;99.90;;;;;;5055311;28;20211;-72
2022/03/16 11:06:59;;;;;;;7.53;6.68;;;10.10;99.90;;;;;;5053993;28;20184;-73
2022/03/16 11:09:24;;;;;;;6.90;6.30;;;10.10;99.90;;;;;;5055233;28;20208;-72
2022/03/16 11:14:36;;;;;;;7.35;6.20;;;10.20;99.90;;;;;;5055512;28;20172;-72
2022/03/16 11:17:03;;;;;;;6.97;6.38;;;10.30;99.90;;;;;;5055120;28;20575;-73
2022/03/16 11:19:30;;;;;;;7.38;6.72;;;10.30;99.90;;;;;;5055151;28;20526;-73
2022/03/16 11:21:56;;;;;;;6.25;5.75;;;10.40;99.90;;;;;;5055047;28;20252;-72
2022/03/16 11:24:25;;;;;;;6.82;6.22;;;10.40;99.90;;;;;;5055030;28;20753;-73
2022/03/16 11:27:18;;;;;;;7.25;6.63;;;10.40;99.90;;;;;;5054885;28;20173;-72
2022/03/16 11:30:07;;;;;;;7.82;6.78;;;10.50;99.90;;;;;;5053510;28;20205;-72
2022/03/16 11:32:38;;;;;;;7.10;6.47;;;10.50;99.90;;;;;;5054790;28;20197;-72
2022/03/16 11:35:09;;;;;;;7.05;6.55;;;10.50;99.90;;;;;;5053866;28;20235;-73
2022/03/16 11:37:36;;;;;;;6.65;6.05;;;10.70;99.90;;;;;;5054799;28;20176;-72
2022/03/16 11:40:26;;;;;;;6.38;5.88;;;10.80;99.90;;;;;;5053474;28;20191;-72
2022/03/16 11:43:04;;;;;;;7.45;6.75;;;10.80;99.90;;;;;;5054295;28;20272;-72
2022/03/16 11:45:40;;;;;;;7.57;6.63;;;10.90;99.90;;;;;;5053371;28;20173;-72
2022/03/16 11:48:37;;;;;;;8.60;6.35;;;10.90;99.90;;;;;;5054489;28;20199;-73
2022/03/16 11:51:06;;;;;;;7.03;6.45;;;11.10;99.90;;;;;;5054468;28;20200;-73
2022/03/16 11:56:44;;;;;;;6.85;6.25;;;11.30;99.90;;;;;;5054455;28;20169;-73
2022/03/16 11:59:20;;;;;;;6.50;6.00;;;11.40;99.90;;;;;;5054258;28;20166;-73
2022/03/16 12:01:48;;;;;;;7.60;5.97;;;11.50;99.90;;;;;;5053015;28;20696;-73
2022/03/16 12:04:19;;;;;;;5.25;4.85;;;11.40;99.90;;;;;;5036686;28;20706;-73
2022/03/16 12:06:48;;;;;;;6.10;5.50;;;11.50;99.90;;;;;;5054165;28;20169;-72
2022/03/16 12:09:20;;;;;;;6.03;5.63;;;11.60;99.90;;;;;;5054016;28;20684;-73
2022/03/16 12:15:10;;;;;;;5.97;5.38;;;11.70;99.90;;;;;;5054049;28;20565;-73
2022/03/16 12:17:37;;;;;;;7.75;5.60;;;11.80;99.90;;;;;;5052718;28;20173;-73
2022/03/16 12:20:14;;;;;;;5.75;5.25;;;11.80;99.90;;;;;;5053952;28;20520;-73
2022/03/16 12:22:46;;;;;;;5.43;5.13;;;12.00;99.90;;;;;;5053866;28;20201;-73
2022/03/16 12:25:26;;;;;;;5.50;5.00;;;12.10;99.90;;;;;;5053850;28;20168;-73
2022/03/16 12:30:42;;;;;;;5.68;5.22;;;12.20;99.90;;;;;;5053804;28;20260;-73
2022/03/16 12:33:28;;;;;;;5.50;5.10;;;12.30;99.90;;;;;;5053650;28;20201;-73
2022/03/16 12:36:04;;;;;;;5.95;5.45;;;12.30;99.90;;;;;;5053690;28;20165;-73
2022/03/16 12:38:33;;;;;;;6.25;5.75;;;12.30;99.90;;;;;;5053547;28;20177;-72
2022/03/16 12:43:46;;;;;;;5.80;5.35;;;12.40;99.90;;;;;;5052869;28;20220;-73
2022/03/16 12:46:47;;;;;;;6.22;5.63;;;12.50;99.90;;;;;;5053252;28;20173;-73
2022/03/16 12:49:18;;;;;;;5.93;5.43;;;12.50;99.90;;;;;;5053502;28;20697;-73
2022/03/16 12:51:45;;;;;;;8.15;5.82;;;12.60;99.90;;;;;;5053359;28;20201;-73
2022/03/16 12:54:21;;;;;;;6.57;5.72;;;12.70;99.90;;;;;;5053393;28;20168;-73
2022/03/16 12:56:52;;;;;;;5.53;5.22;;;12.80;99.90;;;;;;5053389;28;20163;-73
2022/03/16 12:59:31;;;;;;;6.25;5.75;;;12.90;99.90;;;;;;5053296;28;20169;-73
2022/03/16 13:02:01;;;;;;;6.22;5.72;;;12.90;99.90;;;;;;5053364;28;20630;-73
2022/03/16 13:04:30;;;;;;;6.07;5.68;;;13.00;99.90;;;;;;5053273;28;20180;-73
2022/03/16 13:06:57;;;;;;;5.93;5.38;;;13.20;99.90;;;;;;5052148;28;20177;-73
2022/03/16 13:09:31;;;;;;;5.70;5.22;;;13.30;99.90;;;;;;5053103;28;20180;-73
2022/03/16 13:12:11;;;;;;;5.53;4.93;;;13.40;99.90;;;;;;5052968;28;20217;-73
2022/03/16 13:14:44;;;;;;;5.70;5.18;;;13.50;99.90;;;;;;5053185;28;20255;-73
2022/03/16 13:17:13;;;;;;;5.97;5.47;;;13.60;99.90;;;;;;5053190;28;20161;-73
2022/03/16 13:19:40;;;;;;;5.70;5.30;;;13.70;99.90;;;;;;5051992;28;20174;-73
2022/03/16 13:22:07;;;;;;;6.00;5.50;;;13.70;99.90;;;;;;5052993;28;20606;-73
2022/03/16 13:24:50;;;;;;;6.05;5.53;;;13.70;99.90;;;;;;5053086;28;20196;-73
2022/03/16 13:27:17;;;;;;;6.55;5.50;;;13.70;99.90;;;;;;5053157;28;20522;-73
2022/03/16 13:29:53;;;;;;;5.50;4.97;;;13.80;99.90;;;;;;5053085;28;20172;-73
2022/03/16 13:32:27;;;;;;;5.88;5.40;;;13.70;99.90;;;;;;5053018;28;20172;-73
2022/03/16 13:34:53;;;;;;;6.05;5.55;;;13.60;99.90;;;;;;5053042;28;20204;-74
2022/03/16 13:37:27;;;;;;;6.10;5.55;;;13.50;99.90;;;;;;5053048;28;20169;-73
2022/03/16 13:40:02;;;;;;;6.30;5.80;;;13.40;99.90;;;;;;5053000;28;20169;-73
2022/03/16 13:42:35;;;;;;;6.70;5.00;;;13.30;99.90;;;;;;5052904;28;20279;-73
2022/03/16 13:45:17;;;;;;;5.93;5.40;;;13.10;99.90;;;;;;5052832;28;20635;-73
2022/03/16 13:47:46;;;;;;;5.78;5.35;;;13.30;99.90;;;;;;5052928;28;20248;-73
2022/03/16 13:50:23;;;;;;;5.65;5.15;;;13.30;99.90;;;;;;5052851;28;20192;-73
2022/03/16 13:52:53;;;;;;;6.38;5.75;;;13.30;99.90;;;;;;5052809;28;20703;-73
2022/03/16 13:55:19;;;;;;;5.40;5.00;;;13.30;99.90;;;;;;5052847;28;20184;-73
2022/03/16 13:57:46;;;;;;;6.45;5.85;;;13.30;99.90;;;;;;5052738;28;20173;-73
2022/03/16 14:00:15;;;;;;;6.47;5.97;;;13.40;99.90;;;;;;5056111;28;20169;-73
2022/03/16 14:02:41;;;;;;;6.90;6.40;;;13.30;99.90;;;;;;5056382;28;20623;-73
2022/03/16 14:05:19;;;;;;;6.15;5.65;;;13.20;99.90;;;;;;5056560;28;20173;-73
2022/03/16 14:07:54;;;;;;;6.72;6.05;;;13.10;99.90;;;;;;5056354;28;20267;-73
2022/03/16 14:10:25;;;;;;;6.47;5.88;;;13.10;99.90;;;;;;5056406;28;20638;-73
2022/03/16 14:13:04;;;;;;;6.45;5.95;;;13.00;99.90;;;;;;5056153;28;20227;-73
2022/03/16 14:15:31;;;;;;;6.57;5.95;;;12.90;99.90;;;;;;5056323;28;20169;-73
2022/03/16 14:18:11;;;;;;;6.75;6.15;;;12.90;99.90;;;;;;5056266;28;20670;-73
2022/03/16 14:20:51;;;;;;;5.78;5.35;;;12.90;99.90;;;;;;5056234;28;20556;-73
2022/03/16 14:23:16;;;;;;;6.78;6.18;;;12.90;99.90;;;;;;5056100;28;20192;-73
2022/03/16 14:25:50;;;;;;;6.55;5.95;;;12.90;99.90;;;;;;5056110;28;20184;-73
2022/03/16 14:28:17;;;;;;;6.20;5.60;;;12.90;99.90;;;;;;5056048;28;20511;-73
2022/03/16 14:30:49;;;;;;;7.30;6.28;;;13.00;99.90;;;;;;5055998;28;20257;-73
2022/03/16 14:33:17;;;;;;;6.13;5.53;;;12.90;99.90;;;;;;5056022;28;20530;-73
2022/03/16 14:35:42;;;;;;;9.13;6.45;;;12.90;99.90;;;;;;5055931;28;20169;-73
2022/03/16 14:38:09;;;;;;;7.15;5.45;;;12.90;99.90;;;;;;5055863;28;20626;-73
2022/03/16 14:40:41;;;;;;;6.38;5.88;;;13.00;99.90;;;;;;5055841;28;20176;-73
2022/03/16 14:43:09;;;;;;;6.70;6.13;;;12.90;99.90;;;;;;5055732;28;20242;-73
2022/03/16 14:45:35;;;;;;;6.15;5.65;;;13.00;99.90;;;;;;5055781;28;20157;-73
2022/03/16 14:48:04;;;;;;;7.50;6.78;;;13.00;99.90;;;;;;5054408;28;20173;-72
2022/03/16 14:50:30;;;;;;;8.15;6.43;;;12.90;99.90;;;;;;5055673;28;20165;-73
2022/03/16 14:53:04;;;;;;;6.38;5.85;;;12.90;99.90;;;;;;5055595;28;20256;-73
2022/03/16 14:55:30;;;;;;;6.28;5.70;;;12.90;99.90;;;;;;5055636;28;20215;-73
2022/03/16 14:58:12;;;;;;;6.63;6.07;;;12.90;99.90;;;;;;5055469;28;20176;-73
2022/03/16 15:00:39;;;;;;;6.35;5.47;;;12.90;99.90;;;;;;5055456;28;20172;-73
2022/03/16 15:03:10;;;;;;;6.90;6.40;;;12.90;99.90;;;;;;5055329;28;20200;-73
2022/03/16 15:05:36;;;;;;;6.70;6.10;;;12.90;99.90;;;;;;5055403;28;20161;-73
2022/03/16 15:08:01;;;;;;;5.97;5.47;;;12.90;99.90;;;;;;5055273;28;20196;-73
2022/03/16 15:10:28;;;;;;;6.75;5.40;;;12.90;99.90;;;;;;5055076;28;20165;-73
2022/03/16 15:12:54;;;;;;;6.70;6.20;;;12.80;99.90;;;;;;5054974;28;20274;-72
2022/03/16 15:15:20;;;;;;;6.20;5.53;;;12.80;99.90;;;;;;5055144;28;20180;-72
2022/03/16 15:17:47;;;;;;;9.55;6.63;;;12.70;99.90;;;;;;5055162;28;20170;-72
2022/03/16 15:20:14;;;;;;;6.65;6.10;;;12.60;99.90;;;;;;5055133;28;20524;-72
2022/03/16 15:22:40;;;;;;;6.40;5.90;;;12.50;99.90;;;;;;5054967;28;20220;-73
2022/03/16 15:25:06;;;;;;;7.15;6.45;;;12.50;99.90;;;;;;5054969;28;20577;-73
2022/03/16 15:27:32;;;;;;;5.90;5.43;;;12.40;99.90;;;;;;5054871;28;20176;-73
2022/03/16 15:29:58;;;;;;;7.22;6.55;;;12.30;99.90;;;;;;5054860;28;20161;-73
2022/03/16 15:32:26;;;;;;;7.28;6.30;;;12.30;99.90;;;;;;5054830;28;20180;-73
2022/03/16 15:34:52;;;;;;;7.57;6.88;;;12.40;99.90;;;;;;5054770;28;20172;-73
2022/03/16 15:37:18;;;;;;;9.75;8.55;;;12.20;99.90;;;;;;5054758;28;20666;-73
2022/03/16 15:42:43;;;;;;;8.50;7.68;;;12.00;99.90;;;;;;5054636;28;20212;-73
2022/03/16 15:45:10;;;;;;;7.95;7.30;;;11.90;99.90;;;;;;5053351;28;20223;-73
2022/03/16 15:47:36;;;;;;;9.45;7.45;;;11.90;99.90;;;;;;5054585;28;20157;-73
2022/03/16 15:50:05;;;;;;;8.68;7.55;;;11.80;99.90;;;;;;5054415;28;20167;-73
2022/03/16 15:52:33;;;;;;;8.68;7.85;;;11.80;99.90;;;;;;5054436;28;20181;-73
2022/03/16 15:54:59;;;;;;;10.15;8.80;;;11.70;99.90;;;;;;5054544;28;20204;-73
2022/03/16 15:57:25;;;;;;;8.57;7.72;;;11.70;99.90;;;;;;5054355;28;20165;-73
2022/03/16 15:59:52;;;;;;;9.30;7.70;;;11.60;99.90;;;;;;5054306;28;20219;-73
2022/03/16 16:02:20;;;;;;;8.52;7.72;;;11.50;99.90;;;;;;5054143;28;20200;-73
2022/03/16 16:04:45;;;;;;;12.25;8.23;;;11.50;99.90;;;;;;5053819;28;20176;-73
2022/03/16 16:07:15;;;;;;;9.43;8.40;;;11.30;99.90;;;;;;5052959;28;20169;-73
2022/03/16 16:09:41;;;;;;;10.55;8.80;;;11.30;99.90;;;;;;5053765;28;20168;-72
2022/03/16 16:12:07;;;;;;;8.52;7.75;;;11.20;99.90;;;;;;5053894;28;20221;-72
2022/03/16 16:14:33;;;;;;;13.63;8.35;;;11.10;99.90;;;;;;5053957;28;20161;-73
2022/03/16 16:16:58;;;;;;;12.10;9.27;;;11.10;99.90;;;;;;5053792;28;20208;-73
2022/03/16 16:19:24;;;;;;;11.70;8.80;;;11.10;99.90;;;;;;5053795;28;20578;-73
2022/03/16 16:21:51;;;;;;;8.55;7.75;;;11.10;99.90;;;;;;5053222;28;20204;-73
2022/03/16 16:24:17;;;;;;;9.65;8.68;;;11.00;99.90;;;;;;5053811;28;20169;-72
2022/03/16 16:26:44;;;;;;;8.75;7.85;;;10.90;99.90;;;;;;5053787;28;20618;-73
2022/03/16 16:29:10;;;;;;;9.82;8.90;;;10.90;99.90;;;;;;5051802;28;20169;-73
2022/03/16 16:31:40;;;;;;;8.85;7.95;;;10.80;99.90;;;;;;5052155;28;20218;-73
2022/03/16 16:34:11;;;;;;;10.77;9.57;;;10.80;99.90;;;;;;5053753;28;20173;-73
